sensor_id;sensor_type;location;lat;lon;timestamp;pressure;altitude;pressure_sealevel;temperature;humidity
64551;BME280;50945;44.472;-123.352;2023-02-21T00:00:18;101086.84;;;9.43;79.74
64551;BME280;50945;44.472;-123.352;2023-02-21T00:03:02;101078.66;;;9.43;79.85
64551;BME280;50945;44.472;-123.352;2023-02-21T00:05:49;101071.50;;;9.42;80.10
64551;BME280;50945;44.472;-123.352;2023-02-21T00:08:33;101066.19;;;9.40;79.91
64551;BME280;50945;44.472;-123.352;2023-02-21T00:11:18;101068.22;;;9.38;79.82
64551;BME280;50945;44.472;-123.352;2023-02-21T00:14:02;101061.91;;;9.38;80.29
64551;BME280;50945;44.472;-123.352;2023-02-21T00:16:47;101054.59;;;9.38;80.52
64551;BME280;50945;44.472;-123.352;2023-02-21T00:19:31;101053.88;;;9.36;80.48
64551;BME280;50945;44.472;-123.352;2023-02-21T00:22:16;101038.69;;;9.33;80.76
64551;BME280;50945;44.472;-123.352;2023-02-21T00:25:00;101033.53;;;9.30;81.65
64551;BME280;50945;44.472;-123.352;2023-02-21T00:27:45;101028.75;;;9.24;81.50
64551;BME280;50945;44.472;-123.352;2023-02-21T00:30:29;101031.78;;;9.21;81.71
64551;BME280;50945;44.472;-123.352;2023-02-21T00:33:14;101014.72;;;9.19;81.48
64551;BME280;50945;44.472;-123.352;2023-02-21T00:35:58;101014.34;;;9.14;82.08
64551;BME280;50945;44.472;-123.352;2023-02-21T00:38:42;101012.94;;;9.10;82.26
64551;BME280;50945;44.472;-123.352;2023-02-21T00:41:27;101015.00;;;9.08;82.34
64551;BME280;50945;44.472;-123.352;2023-02-21T00:44:12;101011.72;;;9.04;82.02
64551;BME280;50945;44.472;-123.352;2023-02-21T00:46:57;101001.28;;;9.00;82.59
64551;BME280;50945;44.472;-123.352;2023-02-21T00:49:41;100989.84;;;8.96;82.70
64551;BME280;50945;44.472;-123.352;2023-02-21T00:52:26;100978.94;;;8.96;83.15
64551;BME280;50945;44.472;-123.352;2023-02-21T00:55:10;100973.63;;;8.94;82.95
64551;BME280;50945;44.472;-123.352;2023-02-21T00:57:56;100985.53;;;8.93;82.71
64551;BME280;50945;44.472;-123.352;2023-02-21T01:00:40;100979.53;;;8.90;83.12
64551;BME280;50945;44.472;-123.352;2023-02-21T01:03:25;100956.88;;;8.89;83.39
64551;BME280;50945;44.472;-123.352;2023-02-21T01:06:10;100958.59;;;8.90;83.88
64551;BME280;50945;44.472;-123.352;2023-02-21T01:08:58;100942.25;;;8.90;83.35
64551;BME280;50945;44.472;-123.352;2023-02-21T01:11:43;100931.50;;;8.89;83.71
64551;BME280;50945;44.472;-123.352;2023-02-21T01:14:27;100920.59;;;8.89;83.89
64551;BME280;50945;44.472;-123.352;2023-02-21T01:17:11;100914.28;;;8.88;84.00
64551;BME280;50945;44.472;-123.352;2023-02-21T01:19:56;100913.56;;;8.86;84.41
64551;BME280;50945;44.472;-123.352;2023-02-21T01:22:41;100906.59;;;8.84;83.83
64551;BME280;50945;44.472;-123.352;2023-02-21T01:25:25;100876.75;;;8.82;84.19
64551;BME280;50945;44.472;-123.352;2023-02-21T01:28:10;100870.44;;;8.82;83.85
64551;BME280;50945;44.472;-123.352;2023-02-21T01:34:29;100836.53;;;8.76;84.51
64551;BME280;50945;44.472;-123.352;2023-02-21T01:37:14;100813.69;;;8.77;84.56
64551;BME280;50945;44.472;-123.352;2023-02-21T01:39:58;100805.81;;;8.74;84.41
64551;BME280;50945;44.472;-123.352;2023-02-21T01:42:43;100792.47;;;8.63;84.38
64551;BME280;50945;44.472;-123.352;2023-02-21T01:45:49;100770.13;;;8.59;84.16
64551;BME280;50945;44.472;-123.352;2023-02-21T01:48:34;100770.81;;;8.53;84.04
64551;BME280;50945;44.472;-123.352;2023-02-21T01:51:21;100802.25;;;8.47;84.99
64551;BME280;50945;44.472;-123.352;2023-02-21T01:54:07;100800.88;;;8.43;84.59
64551;BME280;50945;44.472;-123.352;2023-02-21T01:56:53;100789.41;;;8.40;84.73
64551;BME280;50945;44.472;-123.352;2023-02-21T01:59:38;100823.28;;;8.37;84.21
64551;BME280;50945;44.472;-123.352;2023-02-21T02:05:17;100872.09;;;8.30;84.47
64551;BME280;50945;44.472;-123.352;2023-02-21T02:08:02;100881.59;;;8.26;84.62
64551;BME280;50945;44.472;-123.352;2023-02-21T02:10:52;100912.25;;;8.28;84.74
64551;BME280;50945;44.472;-123.352;2023-02-21T02:16:47;100884.69;;;8.13;84.23
64551;BME280;50945;44.472;-123.352;2023-02-21T02:25:09;100839.81;;;7.99;83.61
64551;BME280;50945;44.472;-123.352;2023-02-21T02:28:16;100838.75;;;7.92;83.90
64551;BME280;50945;44.472;-123.352;2023-02-21T02:36:41;100802.03;;;7.78;83.74
64551;BME280;50945;44.472;-123.352;2023-02-21T02:47:58;100792.78;;;7.71;84.41
64551;BME280;50945;44.472;-123.352;2023-02-21T02:50:27;100789.19;;;7.71;84.49
64551;BME280;50945;44.472;-123.352;2023-02-21T02:53:01;100785.63;;;7.70;84.09
64551;BME280;50945;44.472;-123.352;2023-02-21T02:56:02;100780.16;;;7.70;84.48
64551;BME280;50945;44.472;-123.352;2023-02-21T02:58:50;100797.34;;;7.71;84.81
64551;BME280;50945;44.472;-123.352;2023-02-21T03:01:44;100813.53;;;7.72;84.87
64551;BME280;50945;44.472;-123.352;2023-02-21T03:18:28;100759.97;;;7.73;84.53
64551;BME280;50945;44.472;-123.352;2023-02-21T03:20:59;100789.56;;;7.76;84.41
64551;BME280;50945;44.472;-123.352;2023-02-21T03:23:31;100754.88;;;7.78;84.30
64551;BME280;50945;44.472;-123.352;2023-02-21T03:26:03;100736.72;;;7.78;84.29
64551;BME280;50945;44.472;-123.352;2023-02-21T03:28:32;100730.25;;;7.79;84.38
64551;BME280;50945;44.472;-123.352;2023-02-21T03:30:59;100749.97;;;7.81;84.28
64551;BME280;50945;44.472;-123.352;2023-02-21T03:33:27;100757.31;;;7.81;84.65
64551;BME280;50945;44.472;-123.352;2023-02-21T03:35:54;100748.00;;;7.84;85.12
64551;BME280;50945;44.472;-123.352;2023-02-21T03:38:20;100731.66;;;7.84;85.08
64551;BME280;50945;44.472;-123.352;2023-02-21T03:40:47;100725.19;;;7.85;84.96
64551;BME280;50945;44.472;-123.352;2023-02-21T03:43:13;100736.06;;;7.85;85.01
64551;BME280;50945;44.472;-123.352;2023-02-21T03:45:39;100728.06;;;7.83;85.18
64551;BME280;50945;44.472;-123.352;2023-02-21T03:48:06;100719.03;;;7.83;85.35
64551;BME280;50945;44.472;-123.352;2023-02-21T03:50:32;100709.16;;;7.81;85.52
64551;BME280;50945;44.472;-123.352;2023-02-21T03:52:58;100714.06;;;7.78;85.21
64551;BME280;50945;44.472;-123.352;2023-02-21T03:55:25;100711.00;;;7.73;86.02
64551;BME280;50945;44.472;-123.352;2023-02-21T03:57:51;100712.13;;;7.70;86.33
64551;BME280;50945;44.472;-123.352;2023-02-21T04:00:17;100714.16;;;7.68;85.94
64551;BME280;50945;44.472;-123.352;2023-02-21T04:02:44;100701.41;;;7.69;86.22
64551;BME280;50945;44.472;-123.352;2023-02-21T04:05:10;100692.41;;;7.68;86.38
64551;BME280;50945;44.472;-123.352;2023-02-21T04:07:36;100689.84;;;7.67;86.54
64551;BME280;50945;44.472;-123.352;2023-02-21T04:10:03;100694.44;;;7.66;86.63
64551;BME280;50945;44.472;-123.352;2023-02-21T04:12:29;100699.88;;;7.66;86.39
64551;BME280;50945;44.472;-123.352;2023-02-21T04:14:56;100693.41;;;7.67;86.91
64551;BME280;50945;44.472;-123.352;2023-02-21T04:17:24;100698.84;;;7.67;86.83
64551;BME280;50945;44.472;-123.352;2023-02-21T04:19:50;100695.44;;;7.65;88.30
64551;BME280;50945;44.472;-123.352;2023-02-21T04:22:16;100712.59;;;7.66;87.19
64551;BME280;50945;44.472;-123.352;2023-02-21T04:24:43;100702.59;;;7.66;86.68
64551;BME280;50945;44.472;-123.352;2023-02-21T04:27:09;100717.19;;;7.65;87.21
64551;BME280;50945;44.472;-123.352;2023-02-21T04:29:36;100714.31;;;7.67;87.20
64551;BME280;50945;44.472;-123.352;2023-02-21T04:32:02;100714.47;;;7.65;87.38
64551;BME280;50945;44.472;-123.352;2023-02-21T04:34:28;100717.19;;;7.65;87.61
64551;BME280;50945;44.472;-123.352;2023-02-21T04:36:54;100715.50;;;7.64;87.21
64551;BME280;50945;44.472;-123.352;2023-02-21T04:39:21;100718.38;;;7.63;87.88
64551;BME280;50945;44.472;-123.352;2023-02-21T04:41:47;100721.94;;;7.63;87.58
64551;BME280;50945;44.472;-123.352;2023-02-21T04:44:13;100722.09;;;7.61;87.49
64551;BME280;50945;44.472;-123.352;2023-02-21T04:46:42;100726.69;;;7.61;88.01
64551;BME280;50945;44.472;-123.352;2023-02-21T04:49:11;100719.38;;;7.61;87.33
64551;BME280;50945;44.472;-123.352;2023-02-21T04:51:38;100700.34;;;7.61;87.41
64551;BME280;50945;44.472;-123.352;2023-02-21T04:54:05;100695.91;;;7.60;87.48
64551;BME280;50945;44.472;-123.352;2023-02-21T04:56:32;100658.81;;;7.59;87.79
64551;BME280;50945;44.472;-123.352;2023-02-21T04:58:59;100648.94;;;7.58;88.04
64551;BME280;50945;44.472;-123.352;2023-02-21T05:01:29;100632.28;;;7.53;88.19
64551;BME280;50945;44.472;-123.352;2023-02-21T05:03:57;100633.56;;;7.49;88.55
64551;BME280;50945;44.472;-123.352;2023-02-21T05:06:26;100626.91;;;7.43;89.27
64551;BME280;50945;44.472;-123.352;2023-02-21T05:08:53;100613.06;;;7.37;89.05
64551;BME280;50945;44.472;-123.352;2023-02-21T05:11:20;100595.53;;;7.31;89.49
64551;BME280;50945;44.472;-123.352;2023-02-21T05:13:47;100605.72;;;7.29;89.82
64551;BME280;50945;44.472;-123.352;2023-02-21T05:16:14;100590.59;;;7.27;89.74
64551;BME280;50945;44.472;-123.352;2023-02-21T05:18:41;100578.13;;;7.24;90.60
64551;BME280;50945;44.472;-123.352;2023-02-21T05:21:07;100572.84;;;7.22;90.53
64551;BME280;50945;44.472;-123.352;2023-02-21T05:23:34;100575.56;;;7.22;90.05
64551;BME280;50945;44.472;-123.352;2023-02-21T05:26:11;100599.19;;;7.22;92.89
64551;BME280;50945;44.472;-123.352;2023-02-21T05:28:39;100596.47;;;7.22;90.75
64551;BME280;50945;44.472;-123.352;2023-02-21T05:31:06;100580.84;;;7.24;90.70
64551;BME280;50945;44.472;-123.352;2023-02-21T05:33:33;100580.84;;;7.24;90.35
64551;BME280;50945;44.472;-123.352;2023-02-21T05:35:59;100583.56;;;7.24;90.60
64551;BME280;50945;44.472;-123.352;2023-02-21T05:38:25;100571.84;;;7.23;90.41
64551;BME280;50945;44.472;-123.352;2023-02-21T05:40:52;100561.81;;;7.24;90.70
64551;BME280;50945;44.472;-123.352;2023-02-21T05:43:18;100552.13;;;7.21;90.34
64551;BME280;50945;44.472;-123.352;2023-02-21T05:45:44;100537.81;;;7.19;93.35
64551;BME280;50945;44.472;-123.352;2023-02-21T05:48:11;100527.97;;;7.18;91.27
64551;BME280;50945;44.472;-123.352;2023-02-21T05:50:37;100531.38;;;7.20;90.45
64551;BME280;50945;44.472;-123.352;2023-02-21T05:53:04;100520.50;;;7.20;91.10
64551;BME280;50945;44.472;-123.352;2023-02-21T05:55:31;100508.78;;;7.20;92.98
64551;BME280;50945;44.472;-123.352;2023-02-21T05:57:57;100497.75;;;7.21;91.03
64551;BME280;50945;44.472;-123.352;2023-02-21T06:00:28;100485.84;;;7.22;90.98
64551;BME280;50945;44.472;-123.352;2023-02-21T06:02:55;100506.59;;;7.23;92.02
64551;BME280;50945;44.472;-123.352;2023-02-21T06:05:22;100506.75;;;7.22;90.85
64551;BME280;50945;44.472;-123.352;2023-02-21T06:07:48;100513.34;;;7.19;90.67
64551;BME280;50945;44.472;-123.352;2023-02-21T06:10:15;100510.63;;;7.19;91.77
64551;BME280;50945;44.472;-123.352;2023-02-21T06:12:42;100490.75;;;7.19;92.11
64551;BME280;50945;44.472;-123.352;2023-02-21T06:15:09;100490.59;;;7.20;92.23
64551;BME280;50945;44.472;-123.352;2023-02-21T06:17:38;100506.91;;;7.20;91.58
64551;BME280;50945;44.472;-123.352;2023-02-21T06:20:06;100488.88;;;7.19;91.97
64551;BME280;50945;44.472;-123.352;2023-02-21T06:22:32;100478.88;;;7.20;92.29
64551;BME280;50945;44.472;-123.352;2023-02-21T06:24:59;100491.44;;;7.21;92.73
64551;BME280;50945;44.472;-123.352;2023-02-21T06:27:25;100501.31;;;7.22;91.61
64551;BME280;50945;44.472;-123.352;2023-02-21T06:29:51;100496.88;;;7.21;92.20
64551;BME280;50945;44.472;-123.352;2023-02-21T06:32:17;100506.75;;;7.22;92.28
64551;BME280;50945;44.472;-123.352;2023-02-21T06:34:44;100502.16;;;7.22;92.38
64551;BME280;50945;44.472;-123.352;2023-02-21T06:37:10;100490.44;;;7.22;92.75
64551;BME280;50945;44.472;-123.352;2023-02-21T06:39:38;100490.44;;;7.22;92.98
64551;BME280;50945;44.472;-123.352;2023-02-21T06:42:04;100474.81;;;7.24;92.41
64551;BME280;50945;44.472;-123.352;2023-02-21T06:44:31;100473.81;;;7.25;92.91
64551;BME280;50945;44.472;-123.352;2023-02-21T06:46:58;100453.75;;;7.26;92.38
64551;BME280;50945;44.472;-123.352;2023-02-21T06:49:24;100482.66;;;7.27;93.11
64551;BME280;50945;44.472;-123.352;2023-02-21T06:51:50;100491.50;;;7.29;92.90
64551;BME280;50945;44.472;-123.352;2023-02-21T06:54:16;100474.34;;;7.29;92.59
64551;BME280;50945;44.472;-123.352;2023-02-21T06:56:42;100478.75;;;7.30;93.11
64551;BME280;50945;44.472;-123.352;2023-02-21T06:59:11;100471.47;;;7.30;92.99
64551;BME280;50945;44.472;-123.352;2023-02-21T07:01:37;100470.44;;;7.31;92.56
64551;BME280;50945;44.472;-123.352;2023-02-21T07:04:04;100469.44;;;7.32;92.70
64551;BME280;50945;44.472;-123.352;2023-02-21T07:06:30;100458.56;;;7.32;92.27
64551;BME280;50945;44.472;-123.352;2023-02-21T07:08:58;100449.38;;;7.33;92.90
64551;BME280;50945;44.472;-123.352;2023-02-21T07:11:24;100457.53;;;7.33;92.92
64551;BME280;50945;44.472;-123.352;2023-02-21T07:13:52;100439.53;;;7.32;93.25
64551;BME280;50945;44.472;-123.352;2023-02-21T07:16:19;100428.63;;;7.32;93.25
64551;BME280;50945;44.472;-123.352;2023-02-21T07:18:46;100434.25;;;7.31;93.30
64551;BME280;50945;44.472;-123.352;2023-02-21T07:21:13;100430.69;;;7.30;93.42
64551;BME280;50945;44.472;-123.352;2023-02-21T07:23:41;100408.03;;;7.30;93.25
64551;BME280;50945;44.472;-123.352;2023-02-21T07:26:07;100393.59;;;7.29;93.24
64551;BME280;50945;44.472;-123.352;2023-02-21T07:28:33;100399.88;;;7.30;94.10
64551;BME280;50945;44.472;-123.352;2023-02-21T07:31:00;100401.59;;;7.31;94.15
64551;BME280;50945;44.472;-123.352;2023-02-21T07:33:26;100405.16;;;7.31;93.81
64551;BME280;50945;44.472;-123.352;2023-02-21T07:35:52;100415.19;;;7.31;93.66
64551;BME280;50945;44.472;-123.352;2023-02-21T07:38:20;100421.66;;;7.30;94.18
64551;BME280;50945;44.472;-123.352;2023-02-21T07:40:47;100418.75;;;7.31;94.14
64551;BME280;50945;44.472;-123.352;2023-02-21T07:43:13;100401.44;;;7.32;94.69
64551;BME280;50945;44.472;-123.352;2023-02-21T07:45:39;100380.22;;;7.36;94.98
64551;BME280;50945;44.472;-123.352;2023-02-21T07:48:06;100357.44;;;7.37;94.65
64551;BME280;50945;44.472;-123.352;2023-02-21T07:50:32;100364.75;;;7.36;94.65
64551;BME280;50945;44.472;-123.352;2023-02-21T07:52:59;100371.19;;;7.35;94.95
64551;BME280;50945;44.472;-123.352;2023-02-21T07:55:25;100369.50;;;7.34;95.06
64551;BME280;50945;44.472;-123.352;2023-02-21T07:57:51;100362.34;;;7.33;95.12
64551;BME280;50945;44.472;-123.352;2023-02-21T08:00:18;100343.31;;;7.33;95.71
64551;BME280;50945;44.472;-123.352;2023-02-21T08:02:47;100340.44;;;7.35;95.14
64551;BME280;50945;44.472;-123.352;2023-02-21T08:05:14;100345.19;;;7.33;95.27
64551;BME280;50945;44.472;-123.352;2023-02-21T08:07:40;100337.19;;;7.31;95.49
64551;BME280;50945;44.472;-123.352;2023-02-21T08:10:07;100335.50;;;7.30;95.43
64551;BME280;50945;44.472;-123.352;2023-02-21T08:12:33;100348.38;;;7.28;96.23
64551;BME280;50945;44.472;-123.352;2023-02-21T08:14:59;100347.53;;;7.28;96.03
64551;BME280;50945;44.472;-123.352;2023-02-21T08:17:25;100338.38;;;7.29;96.11
64551;BME280;50945;44.472;-123.352;2023-02-21T08:19:52;100326.63;;;7.28;96.11
64551;BME280;50945;44.472;-123.352;2023-02-21T08:22:18;100330.22;;;7.29;96.15
64551;BME280;50945;44.472;-123.352;2023-02-21T08:24:44;100328.34;;;7.29;96.18
64551;BME280;50945;44.472;-123.352;2023-02-21T08:27:11;100329.34;;;7.28;96.38
64551;BME280;50945;44.472;-123.352;2023-02-21T08:29:37;100336.50;;;7.29;96.39
64551;BME280;50945;44.472;-123.352;2023-02-21T08:32:05;100343.81;;;7.29;95.69
64551;BME280;50945;44.472;-123.352;2023-02-21T08:34:31;100346.69;;;7.27;95.46
64551;BME280;50945;44.472;-123.352;2023-02-21T08:36:57;100334.97;;;7.27;96.63
64551;BME280;50945;44.472;-123.352;2023-02-21T08:39:24;100349.56;;;7.26;96.38
64551;BME280;50945;44.472;-123.352;2023-02-21T08:41:55;100348.88;;;7.23;96.84
64551;BME280;50945;44.472;-123.352;2023-02-21T08:44:21;100346.31;;;7.22;96.87
64551;BME280;50945;44.472;-123.352;2023-02-21T08:46:47;100356.22;;;7.23;97.12
64551;BME280;50945;44.472;-123.352;2023-02-21T08:49:14;100350.94;;;7.21;97.34
64551;BME280;50945;44.472;-123.352;2023-02-21T08:51:41;100350.06;;;7.21;97.12
64551;BME280;50945;44.472;-123.352;2023-02-21T08:54:07;100349.91;;;7.22;97.50
64551;BME280;50945;44.472;-123.352;2023-02-21T08:56:33;100363.31;;;7.24;97.63
64551;BME280;50945;44.472;-123.352;2023-02-21T08:59:00;100359.75;;;7.23;96.64
64551;BME280;50945;44.472;-123.352;2023-02-21T09:01:33;100353.47;;;7.23;97.40
64551;BME280;50945;44.472;-123.352;2023-02-21T09:04:00;100347.34;;;7.21;96.25
64551;BME280;50945;44.472;-123.352;2023-02-21T09:06:27;100334.41;;;7.15;97.56
64551;BME280;50945;44.472;-123.352;2023-02-21T09:08:53;100338.63;;;7.09;97.54
64551;BME280;50945;44.472;-123.352;2023-02-21T09:11:20;100335.53;;;7.04;97.29
64551;BME280;50945;44.472;-123.352;2023-02-21T09:13:46;100348.63;;;7.00;97.19
64551;BME280;50945;44.472;-123.352;2023-02-21T09:16:12;100338.22;;;6.96;94.52
64551;BME280;50945;44.472;-123.352;2023-02-21T09:18:38;100325.13;;;6.91;92.28
64551;BME280;50945;44.472;-123.352;2023-02-21T09:21:06;100337.31;;;6.87;93.46
64551;BME280;50945;44.472;-123.352;2023-02-21T09:23:32;100343.25;;;6.82;93.89
64551;BME280;50945;44.472;-123.352;2023-02-21T09:25:58;100331.63;;;6.72;92.75
64551;BME280;50945;44.472;-123.352;2023-02-21T09:28:24;100346.88;;;6.65;92.52
64551;BME280;50945;44.472;-123.352;2023-02-21T09:30:50;100342.25;;;6.57;91.25
64551;BME280;50945;44.472;-123.352;2023-02-21T09:33:17;100352.38;;;6.55;90.65
64551;BME280;50945;44.472;-123.352;2023-02-21T09:35:44;100347.91;;;6.46;91.38
64551;BME280;50945;44.472;-123.352;2023-02-21T09:38:10;100330.09;;;6.43;90.27
64551;BME280;50945;44.472;-123.352;2023-02-21T09:40:45;100345.47;;;6.35;90.33
64551;BME280;50945;44.472;-123.352;2023-02-21T09:43:34;100345.06;;;6.30;90.04
64551;BME280;50945;44.472;-123.352;2023-02-21T09:46:32;100352.38;;;6.29;90.80
64551;BME280;50945;44.472;-123.352;2023-02-21T09:49:01;100346.56;;;6.24;90.00
64551;BME280;50945;44.472;-123.352;2023-02-21T09:51:30;100342.97;;;6.23;89.46
64551;BME280;50945;44.472;-123.352;2023-02-21T09:53:58;100335.16;;;6.20;89.25
64551;BME280;50945;44.472;-123.352;2023-02-21T09:58:54;100334.13;;;6.21;88.00
64551;BME280;50945;44.472;-123.352;2023-02-21T10:04:20;100330.28;;;6.24;87.71
64551;BME280;50945;44.472;-123.352;2023-02-21T10:20:29;100310.66;;;6.12;88.67
64551;BME280;50945;44.472;-123.352;2023-02-21T10:22:58;100322.34;;;6.13;88.47
64551;BME280;50945;44.472;-123.352;2023-02-21T10:25:31;100325.06;;;6.13;88.76
64551;BME280;50945;44.472;-123.352;2023-02-21T10:27:58;100313.53;;;6.11;89.40
64551;BME280;50945;44.472;-123.352;2023-02-21T10:30:35;100316.53;;;6.07;88.81
64551;BME280;50945;44.472;-123.352;2023-02-21T10:33:03;100322.84;;;6.08;88.87
64551;BME280;50945;44.472;-123.352;2023-02-21T10:35:33;100320.28;;;6.06;88.87
64551;BME280;50945;44.472;-123.352;2023-02-21T10:38:11;100317.72;;;6.05;89.19
64551;BME280;50945;44.472;-123.352;2023-02-21T10:40:57;100287.50;;;6.00;88.95
64551;BME280;50945;44.472;-123.352;2023-02-21T10:48:53;100286.09;;;5.78;89.33
64551;BME280;50945;44.472;-123.352;2023-02-21T10:51:32;100279.72;;;5.69;89.41
64551;BME280;50945;44.472;-123.352;2023-02-21T10:54:20;100278.66;;;5.62;87.56
64551;BME280;50945;44.472;-123.352;2023-02-21T10:56:48;100278.69;;;5.52;87.53
64551;BME280;50945;44.472;-123.352;2023-02-21T10:59:27;100276.13;;;5.50;86.64
64551;BME280;50945;44.472;-123.352;2023-02-21T11:01:56;100270.03;;;5.48;86.99
64551;BME280;50945;44.472;-123.352;2023-02-21T11:04:33;100281.16;;;5.45;85.15
64551;BME280;50945;44.472;-123.352;2023-02-21T11:07:06;100289.00;;;5.48;84.92
64551;BME280;50945;44.472;-123.352;2023-02-21T11:09:44;100270.56;;;5.52;84.94
64551;BME280;50945;44.472;-123.352;2023-02-21T11:12:24;100269.56;;;5.53;84.24
64551;BME280;50945;44.472;-123.352;2023-02-21T11:17:22;100283.28;;;5.51;85.55
64551;BME280;50945;44.472;-123.352;2023-02-21T11:19:57;100270.91;;;5.49;85.35
64551;BME280;50945;44.472;-123.352;2023-02-21T11:22:51;100275.44;;;5.48;85.44
64551;BME280;50945;44.472;-123.352;2023-02-21T11:27:58;100263.50;;;5.41;85.11
64551;BME280;50945;44.472;-123.352;2023-02-21T11:30:26;100249.41;;;5.38;86.29
64551;BME280;50945;44.472;-123.352;2023-02-21T11:32:55;100261.44;;;5.35;86.76
64551;BME280;50945;44.472;-123.352;2023-02-21T11:35:50;100257.16;;;5.32;86.48
64551;BME280;50945;44.472;-123.352;2023-02-21T11:38:41;100250.19;;;5.30;85.65
64551;BME280;50945;44.472;-123.352;2023-02-21T11:41:22;100256.75;;;5.27;86.05
64551;BME280;50945;44.472;-123.352;2023-02-21T11:43:50;100253.50;;;5.24;85.61
64551;BME280;50945;44.472;-123.352;2023-02-21T11:54:06;100245.50;;;5.22;85.24
64551;BME280;50945;44.472;-123.352;2023-02-21T11:59:34;100242.81;;;5.22;84.62
64551;BME280;50945;44.472;-123.352;2023-02-21T12:02:43;100237.38;;;5.22;85.01
64551;BME280;50945;44.472;-123.352;2023-02-21T12:05:32;100227.72;;;5.20;85.21
64551;BME280;50945;44.472;-123.352;2023-02-21T12:11:17;100222.28;;;5.20;85.82
64551;BME280;50945;44.472;-123.352;2023-02-21T12:14:07;100201.78;;;5.17;83.87
64551;BME280;50945;44.472;-123.352;2023-02-21T12:16:45;100205.09;;;5.11;84.88
64551;BME280;50945;44.472;-123.352;2023-02-21T12:22:13;100186.22;;;5.01;85.08
64551;BME280;50945;44.472;-123.352;2023-02-21T12:32:50;100186.50;;;4.98;83.02
64551;BME280;50945;44.472;-123.352;2023-02-21T12:44:17;100162.75;;;4.64;88.73
64551;BME280;50945;44.472;-123.352;2023-02-21T12:49:41;100150.94;;;4.37;89.98
64551;BME280;50945;44.472;-123.352;2023-02-21T12:52:20;100135.75;;;4.27;89.61
64551;BME280;50945;44.472;-123.352;2023-02-21T12:54:59;100126.66;;;4.18;89.45
64551;BME280;50945;44.472;-123.352;2023-02-21T13:00:19;100115.66;;;3.92;91.22
64551;BME280;50945;44.472;-123.352;2023-02-21T13:05:51;100121.41;;;3.69;91.19
64551;BME280;50945;44.472;-123.352;2023-02-21T13:08:20;100118.75;;;3.59;92.50
64551;BME280;50945;44.472;-123.352;2023-02-21T13:11:59;100117.34;;;3.55;91.12
64551;BME280;50945;44.472;-123.352;2023-02-21T13:13:52;100111.94;;;3.55;91.44
64551;BME280;50945;44.472;-123.352;2023-02-21T13:16:19;100116.59;;;3.53;91.09
64551;BME280;50945;44.472;-123.352;2023-02-21T13:18:58;100120.59;;;3.59;90.81
64551;BME280;50945;44.472;-123.352;2023-02-21T13:24:43;100091.38;;;3.82;89.33
64551;BME280;50945;44.472;-123.352;2023-02-21T13:29:48;100069.97;;;3.89;88.62
64551;BME280;50945;44.472;-123.352;2023-02-21T13:32:17;100054.44;;;3.91;88.05
64551;BME280;50945;44.472;-123.352;2023-02-21T13:34:53;100061.28;;;3.95;86.08
64551;BME280;50945;44.472;-123.352;2023-02-21T13:37:27;100051.00;;;3.98;85.62
64551;BME280;50945;44.472;-123.352;2023-02-21T13:40:06;100037.34;;;4.00;85.77
64551;BME280;50945;44.472;-123.352;2023-02-21T13:42:35;100030.34;;;3.97;86.11
64551;BME280;50945;44.472;-123.352;2023-02-21T13:53:11;100034.25;;;3.85;87.28
64551;BME280;50945;44.472;-123.352;2023-02-21T13:58:39;100013.94;;;3.81;86.44
64551;BME280;50945;44.472;-123.352;2023-02-21T14:01:21;100022.03;;;3.81;86.75
64551;BME280;50945;44.472;-123.352;2023-02-21T14:03:50;100014.84;;;3.72;86.33
64551;BME280;50945;44.472;-123.352;2023-02-21T14:06:34;99978.25;;;3.68;84.32
64551;BME280;50945;44.472;-123.352;2023-02-21T14:09:19;99983.66;;;3.68;83.00
64551;BME280;50945;44.472;-123.352;2023-02-21T14:11:50;99968.22;;;3.60;83.73
64551;BME280;50945;44.472;-123.352;2023-02-21T14:19:41;99962.03;;;3.68;80.14
64551;BME280;50945;44.472;-123.352;2023-02-21T14:22:19;99935.88;;;3.68;80.61
64551;BME280;50945;44.472;-123.352;2023-02-21T14:24:48;99942.97;;;3.69;79.56
64551;BME280;50945;44.472;-123.352;2023-02-21T14:32:31;99917.22;;;3.75;77.61
64551;BME280;50945;44.472;-123.352;2023-02-21T14:35:00;99924.41;;;3.84;77.28
64551;BME280;50945;44.472;-123.352;2023-02-21T14:37:43;99923.72;;;3.82;75.46
64551;BME280;50945;44.472;-123.352;2023-02-21T14:48:36;99917.00;;;4.04;72.29
64551;BME280;50945;44.472;-123.352;2023-02-21T14:51:32;99911.59;;;4.04;73.04
64551;BME280;50945;44.472;-123.352;2023-02-21T15:02:28;99915.53;;;3.64;80.42
64551;BME280;50945;44.472;-123.352;2023-02-21T15:05:21;99912.22;;;3.52;81.04
64551;BME280;50945;44.472;-123.352;2023-02-21T15:10:20;99902.69;;;3.48;80.93
64551;BME280;50945;44.472;-123.352;2023-02-21T15:12:53;99905.56;;;3.47;82.07
64551;BME280;50945;44.472;-123.352;2023-02-21T15:15:26;99914.50;;;3.47;82.14
64551;BME280;50945;44.472;-123.352;2023-02-21T15:18:07;99935.69;;;3.52;81.98
64551;BME280;50945;44.472;-123.352;2023-02-21T15:20:36;99947.59;;;3.59;82.12
64551;BME280;50945;44.472;-123.352;2023-02-21T15:25:38;99929.13;;;3.54;83.55
64551;BME280;50945;44.472;-123.352;2023-02-21T15:28:17;99926.91;;;3.40;82.01
64551;BME280;50945;44.472;-123.352;2023-02-21T15:33:23;99894.56;;;3.20;82.77
64551;BME280;50945;44.472;-123.352;2023-02-21T15:36:05;99886.91;;;3.16;82.60
64551;BME280;50945;44.472;-123.352;2023-02-21T15:41:30;99868.34;;;3.03;83.92
64551;BME280;50945;44.472;-123.352;2023-02-21T15:49:32;99856.09;;;3.09;81.90
64551;BME280;50945;44.472;-123.352;2023-02-21T15:52:01;99850.25;;;3.13;82.54
64551;BME280;50945;44.472;-123.352;2023-02-21T15:54:30;99859.47;;;3.20;82.79